Tatamagouche, Canada
Current Conditions -  °F | °C
As of 9:32 PM on Friday 28 Nov 2014 (Local Time) from CYYG Reporting Station
Snow Showers Snow Showers  
Wind Chill: 16°   Ceiling: 3800
Heat Index: 25°   Visibility: 12mi
Dew Point: 21°   Wind: 8mph
Humidity: 86%   Direction: 300°WNW
Pressure: 29.94"   Gusts: NA
Location:  45.72°N, 63.28°W
Report Text: CYYG 290132Z 30007KT 12SM -SHSN BKN038 OVC100 M04/M06 A2994 RMK SC6AS2 MOON VISBL SLP142
Loading
Personal Weather Stations






























Interactive Weather Map New forecast layout! Learn more

10-Day Weather Forecast

Advertisements
Track Severe Weather on mobile